Map

Track Data

SID SEASON NUMBER BASIN SUBBASIN NAME ISO_TIME NATURE LAT LON WMO_WIND WMO_PRES WMO_AGENCY TRACK_TYPE DIST2LAND LANDFALL IFLAG USA_AGENCY USA_ATCF_ID USA_LAT USA_LON USA_RECORD USA_STATUS USA_WIND USA_PRES USA_SSHS USA_R34_NE USA_R34_SE USA_R34_SW USA_R34_NW USA_R50_NE USA_R50_SE USA_R50_SW USA_R50_NW USA_R64_NE USA_R64_SE USA_R64_SW USA_R64_NW USA_POCI USA_ROCI USA_RMW USA_EYE TOKYO_LAT TOKYO_LON TOKYO_GRADE TOKYO_WIND TOKYO_PRES TOKYO_R50_DIR TOKYO_R50_LONG TOKYO_R50_SHORT TOKYO_R30_DIR TOKYO_R30_LONG TOKYO_R30_SHORT TOKYO_LAND CMA_LAT CMA_LON CMA_CAT CMA_WIND CMA_PRES HKO_LAT HKO_LON HKO_CAT HKO_WIND HKO_PRES NEWDELHI_LAT NEWDELHI_LON NEWDELHI_GRADE NEWDELHI_WIND NEWDELHI_PRES NEWDELHI_CI NEWDELHI_DP NEWDELHI_POCI REUNION_LAT REUNION_LON REUNION_TYPE REUNION_WIND REUNION_PRES REUNION_TNUM REUNION_CI REUNION_RMW REUNION_R34_NE REUNION_R34_SE REUNION_R34_SW REUNION_R34_NW REUNION_R50_NE REUNION_R50_SE REUNION_R50_SW REUNION_R50_NW REUNION_R64_NE REUNION_R64_SE REUNION_R64_SW REUNION_R64_NW BOM_LAT BOM_LON BOM_TYPE BOM_WIND BOM_PRES BOM_TNUM BOM_CI BOM_RMW BOM_R34_NE BOM_R34_SE BOM_R34_SW BOM_R34_NW BOM_R50_NE BOM_R50_SE BOM_R50_SW BOM_R50_NW BOM_R64_NE BOM_R64_SE BOM_R64_SW BOM_R64_NW BOM_ROCI BOM_POCI BOM_EYE BOM_POS_METHOD BOM_PRES_METHOD NADI_LAT NADI_LON NADI_CAT NADI_WIND NADI_PRES WELLINGTON_LAT WELLINGTON_LON WELLINGTON_WIND WELLINGTON_PRES DS824_LAT DS824_LON DS824_STAGE DS824_WIND DS824_PRES TD9636_LAT TD9636_LON TD9636_STAGE TD9636_WIND TD9636_PRES TD9635_LAT TD9635_LON TD9635_WIND TD9635_PRES TD9635_ROCI NEUMANN_LAT NEUMANN_LON NEUMANN_CLASS NEUMANN_WIND NEUMANN_PRES MLC_LAT MLC_LON MLC_CLASS MLC_WIND MLC_PRES USA_GUST BOM_GUST BOM_GUST_PER REUNION_GUST REUNION_GUST_PER USA_SEAHGT USA_SEARAD_NE USA_SEARAD_SE USA_SEARAD_SW USA_SEARAD_NW STORM_SPEED STORM_DIR
1985211N12237 1985 60 EP MM LINDA 1985-07-29 18:00:00 TS 12.3000 -123.300 25 hurdat_epa main 1819 1819 O_________O___ hurdat_epa EP121985 12.3000 -123.300 TD 25 -1 12.3000 -123.300 1 25 14 287
1985211N12237 1985 60 EP MM LINDA 1985-07-29 21:00:00 TS 12.5082 -124.009 main 1851 1851 P_________P___ EP121985 12.5079 -124.010 TD 27 -1 12.5090 -124.006 1 27 14 286
1985211N12237 1985 60 EP MM LINDA 1985-07-30 00:00:00 TS 12.7000 -124.700 30 hurdat_epa main 1885 1885 O_________O___ hurdat_epa EP121985 12.7000 -124.700 TD 30 -1 12.7000 -124.700 1 30 14 285
1985211N12237 1985 60 EP MM LINDA 1985-07-30 03:00:00 TS 12.8638 -125.362 main 1921 1921 P_________P___ EP121985 12.8648 -125.358 TD 30 -1 12.8608 -125.373 1 30 13 283
1985211N12237 1985 60 EP MM LINDA 1985-07-30 06:00:00 TS 12.9984 -126.007 30 hurdat_epa main 1959 1959 O_________P___ hurdat_epa EP121985 13.0000 -126.000 TD 30 -1 12.9937 -126.028 1 30 13 281
1985211N12237 1985 60 EP MM LINDA 1985-07-30 09:00:00 TS 13.1123 -126.655 main 2006 2006 P_________P___ EP121985 13.1148 -126.650 TD 30 -1 13.1048 -126.668 1 30 13 279
1985211N12237 1985 60 EP MM LINDA 1985-07-30 12:00:00 TS 13.2000 -127.300 30 hurdat_epa main 2047 2047 O_________O___ hurdat_epa EP121985 13.2000 -127.300 TD 30 -1 13.2000 -127.300 1 30 13 277
1985211N12237 1985 60 EP MM LINDA 1985-07-30 15:00:00 TS 13.2607 -127.956 main 2097 2097 P_________P___ EP121985 13.2499 -127.958 TD 30 -1 13.2932 -127.953 1 30 13 275
1985211N12237 1985 60 EP MM LINDA 1985-07-30 18:00:00 TS 13.3181 -128.599 30 hurdat_epa main 2140 2140 O_________P___ hurdat_epa EP121985 13.3000 -128.600 TD 30 -1 13.3723 -128.595 1 30 12 277
1985211N12237 1985 60 EP MM LINDA 1985-07-30 21:00:00 TS 13.4099 -129.215 main 2173 2173 P_________P___ EP121985 13.3999 -129.215 TD 30 -1 13.4402 -129.215 1 30 12 279
1985211N12237 1985 60 EP MM LINDA 1985-07-31 00:00:00 TS 13.5000 -129.800 30 hurdat_epa main 2207 2207 O_________O___ hurdat_epa EP121985 13.5000 -129.800 TD 30 -1 13.5000 -129.800 1 30 11 277
1985211N12237 1985 60 EP MM LINDA 1985-07-31 03:00:00 TS 13.5552 -130.369 main 2243 2243 P_________P___ EP121985 13.5574 -130.373 TD 35 0 13.5486 -130.356 1 33 11 275
1985211N12237 1985 60 EP MM LINDA 1985-07-31 06:00:00 TS 13.5980 -130.894 40 hurdat_epa main 2280 2280 O_________P___ hurdat_epa EP121985 13.6000 -130.900 TS 40 0 13.5920 -130.875 1 37 10 275
1985211N12237 1985 60 EP MM LINDA 1985-07-31 09:00:00 TS 13.6416 -131.369 main 2318 2317 P_________P___ EP121985 13.6424 -131.373 TS 42 0 13.6394 -131.356 1 41 9 277
1985211N12237 1985 60 EP MM LINDA 1985-07-31 12:00:00 TS 13.7000 -131.800 45 hurdat_epa main 2340 2340 O_________O___ hurdat_epa EP121985 13.7000 -131.800 TS 45 0 13.7000 -131.800 2 45 8 280
1985211N12237 1985 60 EP MM LINDA 1985-07-31 15:00:00 TS 13.7886 -132.221 main 2363 2363 P_________P___ EP121985 13.7924 -132.215 TS 45 0 13.7773 -132.239 2 45 8 284
1985211N12237 1985 60 EP MM LINDA 1985-07-31 18:00:00 TS 13.8924 -132.610 45 hurdat_epa main 2387 2387 O_________P___ hurdat_epa EP121985 13.9000 -132.600 TS 45 0 13.8698 -132.640 2 45 8 285
1985211N12237 1985 60 EP MM LINDA 1985-07-31 21:00:00 TS 13.9887 -132.978 main 2399 2365 P_________P___ EP121985 13.9925 -132.973 TS 45 0 13.9774 -132.996 2 45 7 287
1985211N12237 1985 60 EP MM LINDA 1985-08-01 00:00:00 TS 14.1000 -133.300 45 hurdat_epa main 2365 2331 O_________O___ hurdat_epa EP121985 14.1000 -133.300 TS 45 0 14.1000 -133.300 2 45 6 294
1985211N12237 1985 60 EP MM LINDA 1985-08-01 03:00:00 TS 14.2427 -133.578 main 2331 2303 P_________P___ EP121985 14.2425 -133.580 TS 40 0 14.2435 -133.571 2 42 6 302
1985211N12237 1985 60 EP MM LINDA 1985-08-01 06:00:00 TS 14.3999 -133.797 35 hurdat_epa main 2303 2280 O_________P___ hurdat_epa EP121985 14.4000 -133.800 TS 35 0 14.3997 -133.790 2 40 5 309
1985211N12237 1985 60 EP MM LINDA 1985-08-01 09:00:00 TS 14.5571 -133.976 main 2276 2263 P_________P___ EP121985 14.5575 -133.980 TS 35 0 14.5561 -133.964 2 37 4 316
1985211N12237 1985 60 EP MM LINDA 1985-08-01 12:00:00 TS 14.7000 -134.100 35 hurdat_epa main 2263 2249 O_________O___ hurdat_epa EP121985 14.7000 -134.100 TS 35 0 14.7000 -134.100 2 35 3 324
1985211N12237 1985 60 EP MM LINDA 1985-08-01 15:00:00 TS 14.8081 -134.165 main 2249 2246 P_________P___ EP121985 14.8075 -134.158 TS 35 0 14.8101 -134.187 2 33 2 333
1985211N12237 1985 60 EP MM LINDA 1985-08-01 18:00:00 TS 14.9018 -134.211 35 hurdat_epa main 2246 2233 O_________P___ hurdat_epa EP121985 14.9000 -134.200 TS 35 0 14.9072 -134.243 2 32 2 328
1985211N12237 1985 60 EP MM LINDA 1985-08-01 21:00:00 TS 14.9946 -134.289 main 2233 2219 P_________P___ EP121985 14.9925 -134.285 TS 32 -1 15.0007 -134.302 2 31 3 318
1985211N12237 1985 60 EP MM LINDA 1985-08-02 00:00:00 TS 15.1000 -134.400 30 hurdat_epa main 2219 2206 O_________O___ hurdat_epa EP121985 15.1000 -134.400 TD 30 -1 15.1000 -134.400 1 30 3 317
1985211N12237 1985 60 EP MM LINDA 1985-08-02 03:00:00 TS 15.2419 -134.531 main 2206 2179 P_________P___ EP121985 15.2499 -134.520 TD 30 -1 15.2178 -134.566 1 30 4 313
1985211N12237 1985 60 EP MM LINDA 1985-08-02 06:00:00 TS 15.3856 -134.719 30 hurdat_epa main 2179 2145 O_________P___ hurdat_epa EP121985 15.4000 -134.700 TD 30 -1 15.3424 -134.775 1 30 5 300
1985211N12237 1985 60 EP MM LINDA 1985-08-02 09:00:00 TS 15.4984 -134.989 main 2145 2111 P_________P___ EP121985 15.5075 -134.978 TD 30 -1 15.4708 -135.022 1 30 6 291
1985211N12237 1985 60 EP MM LINDA 1985-08-02 12:00:00 TS 15.6000 -135.300 30 hurdat_epa main 2111 2077 O_________O___ hurdat_epa EP121985 15.6000 -135.300 TD 30 -1 15.6000 -135.300 1 30 6 289
1985211N12237 1985 60 EP MM LINDA 1985-08-02 15:00:00 TS 15.7006 -135.595 main 2077 2044 P_________P___ EP121985 15.6924 -135.593 TD 30 -1 15.7251 -135.600 1 30 6 290
1985211N12237 1985 60 EP MM LINDA 1985-08-02 18:00:00 TS 15.8125 -135.907 30 hurdat_epa main 2044 2010 O_________P___ hurdat_epa EP121985 15.8000 -135.900 TD 30 -1 15.8501 -135.928 1 30 7 292
1985211N12237 1985 60 EP MM LINDA 1985-08-02 21:00:00 TS 15.9563 -136.254 main 1997 1963 P_________P___ EP121985 15.9500 -136.250 TD 30 -1 15.9751 -136.266 1 30 7 293
1985211N12237 1985 60 EP MM LINDA 1985-08-03 00:00:00 TS 16.1000 -136.600 30 hurdat_epa main 1963 1929 O_________O___ hurdat_epa EP121985 16.1000 -136.600 TD 30 -1 16.1000 -136.600 1 30 7 292
1985211N12237 1985 60 EP MM LINDA 1985-08-03 03:00:00 TS 16.2051 -136.908 main 1929 1895 P_________P___ EP121985 16.1999 -136.908 TD 27 -1 16.2208 -136.907 1 28 6 290
1985211N12237 1985 60 EP MM LINDA 1985-08-03 06:00:00 TS 16.3106 -137.202 25 hurdat_epa main 1895 1861 O_________P___ hurdat_epa EP121985 16.3000 -137.200 TD 25 -1 16.3423 -137.208 1 27 6 293
1985211N12237 1985 60 EP MM LINDA 1985-08-03 09:00:00 TS 16.4487 -137.495 main 1861 1825 P_________P___ EP121985 16.4424 -137.493 TD 25 -1 16.4676 -137.504 1 26 6 297
1985211N12237 1985 60 EP MM LINDA 1985-08-03 12:00:00 TS 16.6000 -137.800 25 hurdat_epa main 1825 1792 O_________O___ hurdat_epa EP121985 16.6000 -137.800 TD 25 -1 16.6000 -137.800 1 25 7 296
1985211N12237 1985 60 EP MM LINDA 1985-08-03 15:00:00 TS 16.7503 -138.147 main 1789 1745 P_________P___ EP121985 16.7500 -138.158 TD 25 -1 16.7510 -138.116 1 25 7 295
1985211N12237 1985 60 EP MM LINDA 1985-08-03 18:00:00 TS 16.9019 -138.482 25 hurdat_epa main 1745 1722 O_________P___ hurdat_epa EP121985 16.9000 -138.500 TD 25 -1 16.9076 -138.430 1 25 7 298
1985211N12237 1985 60 EP MM LINDA 1985-08-03 21:00:00 TS 17.0581 -138.745 main 1720 1686 P_________P___ EP121985 17.0573 -138.750 TD 25 -1 17.0604 -138.729 1 25 6 301
1985211N12237 1985 60 EP MM LINDA 1985-08-04 00:00:00 TS 17.2000 -139.000 25 hurdat_epa main 1686 1653 O_________O___ hurdat_epa EP121985 17.2000 -139.000 TD 25 -1 17.2000 -139.000 1 25 6 294
1985211N12237 1985 60 EP MM LINDA 1985-08-04 03:00:00 TS 17.3103 -139.342 main 1653 1619 P_________P___ EP121985 17.3077 -139.380 TD 25 -1 17.3182 -139.229 1 25 6 289
1985211N12237 1985 60 EP MM LINDA 1985-08-04 06:00:00 TS 17.4056 -139.633 25 hurdat_epa main 1619 1607 O_________P___ hurdat_epa EP121985 17.4000 -139.700 TD 25 -1 17.4222 -139.430 1 25 4 297
1985211N12237 1985 60 EP MM LINDA 1985-08-04 09:00:00 TS 17.5037 -139.734 main 1607 1595 P_________P___ EP121985 17.4999 -139.773 TD 25 -1 17.5151 -139.616 1 25 3 317
1985211N12237 1985 60 EP MM LINDA 1985-08-04 12:00:00 TS 17.5882 -139.812 25 hurdat_epa main 1595 1572 O_________O___ hurdat_epa EP121985 17.6000 -139.800 TD 25 -1 17.6000 -139.800 1 25 3 305
1985211N12237 1985 60 EP MM LINDA 1985-08-04 15:00:00 TS 17.6748 -139.992 main 1572 1551 P_________P___ EP121985 17.7075 -139.977 TD 32 -1 17.6942 -139.984 1 28 4 294
1985211N12237 1985 60 EP CP LINDA 1985-08-04 18:00:00 TS 17.7484 -140.194 40 hurdat_epa main 1551 1528 O_________P___ hurdat_epa EP121985 17.8000 -140.200 TS 40 0 17.7797 -140.170 1 32 4 290
1985211N12237 1985 60 EP CP LINDA 1985-08-04 21:00:00 TS 17.8075 -140.371 main 1528 1505 P_________P___ EP121985 17.8649 -140.385 TS 40 0 17.8504 -140.371 1 36 4 287
1985211N12237 1985 60 EP CP LINDA 1985-08-05 00:00:00 TS 17.8600 -140.580 40 hurdat_epa main 1505 1485 O_________O___ hurdat_epa EP121985 17.9000 -140.600 TS 40 0 17.9000 -140.600 2 40 5 280
1985211N12237 1985 60 EP CP LINDA 1985-08-05 03:00:00 TS 17.8896 -140.852 main 1474 1453 P_________P___ EP121985 17.9075 -140.885 TS 40 0 17.9257 -140.871 2 40 5 275
1985211N12237 1985 60 EP CP LINDA 1985-08-05 06:00:00 TS 17.9060 -141.154 40 hurdat_epa main 1443 1422 O_________P___ hurdat_epa EP121985 17.9000 -141.200 TS 40 0 17.9301 -141.170 2 40 6 274
1985211N12237 1985 60 EP CP LINDA 1985-08-05 09:00:00 TS 17.9299 -141.448 main 1422 1391 P_________P___ EP121985 17.9075 -141.507 TS 40 0 17.9194 -141.484 2 40 6 273
1985211N12237 1985 60 EP CP LINDA 1985-08-05 12:00:00 TS 17.9400 -141.740 40 hurdat_epa main 1391 1359 O_________O___ hurdat_epa EP121985 17.9000 -141.800 TS 40 0 17.9000 -141.800 2 40 5 269
1985211N12237 1985 60 EP CP LINDA 1985-08-05 15:00:00 TS 17.9207 -142.005 main 1359 1328 P_________P___ EP121985 17.8499 -142.043 TS 37 0 17.8816 -142.068 2 37 5 265
1985211N12237 1985 60 EP CP LINDA 1985-08-05 18:00:00 TS 17.8913 -142.288 35 hurdat_epa main 1328 1297 O_________P___ hurdat_epa EP121985 17.8000 -142.300 TS 35 0 17.8566 -142.340 2 35 6 265
1985211N12237 1985 60 EP CP LINDA 1985-08-05 21:00:00 TS 17.8741 -142.618 main 1297 1255 P_________P___ EP121985 17.7924 -142.620 TS 32 -1 17.8284 -142.643 2 32 7 267
1985211N12237 1985 60 EP CP LINDA 1985-08-06 00:00:00 TS 17.8600 -143.000 30 hurdat_epa main 1255 1213 O_________O___ hurdat_epa EP121985 17.8000 -143.000 TD 30 -1 17.8000 -143.000 1 30 8 268
1985211N12237 1985 60 EP CP LINDA 1985-08-06 03:00:00 TS 17.8517 -143.424 main 1213 1163 P_________P___ EP121985 17.8074 -143.420 TD 30 -1 17.7791 -143.430 1 30 9 268
1985211N12237 1985 60 EP CP LINDA 1985-08-06 06:00:00 TS 17.8315 -143.903 30 hurdat_epa main 1163 1111 O_________P___ hurdat_epa EP121985 17.8000 -143.900 TD 30 -1 17.7574 -143.917 1 30 10 266
1985211N12237 1985 60 EP CP LINDA 1985-08-06 09:00:00 TS 17.7839 -144.436 main 1111 1052 P_________P___ EP121985 17.7575 -144.435 TD 30 -1 17.7320 -144.446 1 30 11 264
1985211N12237 1985 60 EP CP LINDA 1985-08-06 12:00:00 TS 17.7200 -145.000 30 hurdat_epa main 1052 1000 O_________O___ hurdat_epa EP121985 17.7000 -145.000 TD 30 -1 17.7000 -145.000 1 30 11 263
1985211N12237 1985 60 EP CP LINDA 1985-08-06 15:00:00 TS 17.6521 -145.554 main 990 941 P_________P___ EP121985 17.6498 -145.542 TD 27 -1 17.6689 -145.541 1 28 11 263
1985211N12237 1985 60 EP CP LINDA 1985-08-06 18:00:00 TS 17.5859 -146.121 25 hurdat_epa main 941 882 O_________P___ hurdat_epa EP121985 17.6000 -146.100 TD 25 -1 17.6293 -146.105 1 27 11 264
1985211N12237 1985 60 EP CP LINDA 1985-08-06 21:00:00 TS 17.5453 -146.693 main 882 821 P_________P___ EP121985 17.5647 -146.677 TD 25 -1 17.5750 -146.691 1 26 11 265
1985211N12237 1985 60 EP CP LINDA 1985-08-07 00:00:00 TS 17.4800 -147.300 25 hurdat_epa main 821 764 O_________O___ hurdat_epa EP121985 17.5000 -147.300 TD 25 -1 17.5000 -147.300 1 25 12 260
1985211N12237 1985 60 EP CP LINDA 1985-08-07 03:00:00 TS 17.3352 -147.967 main 758 703 P_________P___ EP121985 17.3576 -148.000 TD 27 -1 17.3961 -147.920 1 26 13 257
1985211N12237 1985 60 EP CP LINDA 1985-08-07 06:00:00 TS 17.1744 -148.653 30 hurdat_epa main 693 639 O_________P___ hurdat_epa EP121985 17.2000 -148.700 TD 30 -1 17.2718 -148.563 1 27 13 258
1985211N12237 1985 60 EP CP LINDA 1985-08-07 09:00:00 TS 17.0626 -149.312 main 639 588 P_________P___ EP121985 17.0997 -149.315 TD 30 -1 17.1366 -149.224 1 28 13 260
1985211N12237 1985 60 EP CP LINDA 1985-08-07 12:00:00 TS 16.9600 -149.960 30 hurdat_epa main 578 539 O_________O___ hurdat_epa EP121985 17.0000 -149.900 TD 30 -1 17.0000 -149.900 1 30 12 259
1985211N12237 1985 60 EP CP LINDA 1985-08-07 15:00:00 TS 16.8327 -150.575 main 536 492 P_________P___ EP121985 16.8495 -150.470 TD 30 -1 16.8578 -150.566 1 30 12 258
1985211N12237 1985 60 EP CP LINDA 1985-08-07 18:00:00 TS 16.7037 -151.230 30 hurdat_epa main 492 445 O_________P___ hurdat_epa EP121985 16.7000 -151.100 TD 30 -1 16.7186 -151.248 1 30 14 259
1985211N12237 1985 60 EP CP LINDA 1985-08-07 21:00:00 TS 16.5800 -151.990 main 438 390 P_________P___ EP121985 16.5850 -151.870 TD 30 -1 16.5951 -151.956 1 30 15 262
1985211N12237 1985 60 EP CP LINDA 1985-08-08 00:00:00 TS 16.4800 -152.800 30 hurdat_epa main 390 356 O_________O___ hurdat_epa EP121985 16.5000 -152.700 TD 30 -1 16.5000 -152.700 1 30 16 264
1985211N12237 1985 60 EP CP LINDA 1985-08-08 03:00:00 TS 16.4146 -153.597 main 356 311 P_________P___ EP121985 16.4346 -153.492 TD 30 -1 16.4420 -153.493 1 30 15 266
1985211N12237 1985 60 EP CP LINDA 1985-08-08 06:00:00 TS 16.3824 -154.404 30 hurdat_epa main 311 284 O_________P___ hurdat_epa EP121985 16.4000 -154.300 TD 30 -1 16.4122 -154.320 1 30 16 269
1985211N12237 1985 60 EP CP LINDA 1985-08-08 09:00:00 TS 16.3740 -155.222 main 284 279 P_________P___ EP121985 16.3923 -155.150 TD 30 -1 16.4013 -155.162 1 30 16 270
1985211N12237 1985 60 EP CP LINDA 1985-08-08 12:00:00 TS 16.3800 -156.040 30 hurdat_epa main 281 281 O_________O___ hurdat_epa EP121985 16.4000 -156.000 TD 30 -1 16.4000 -156.000 1 30 16 270
1985211N12237 1985 60 EP CP LINDA 1985-08-08 15:00:00 TS 16.3784 -156.848 main 303 303 P_________P___ EP121985 16.3996 -156.807 TD 30 -1 16.4009 -156.820 1 28 15 270
1985211N12237 1985 60 EP CP LINDA 1985-08-08 18:00:00 TS 16.3804 -157.645 30 hurdat_epa main 344 344 O_________P___ hurdat_epa EP121985 16.4000 -157.600 TD 30 -1 16.4018 -157.622 1 27 15 270
1985211N12237 1985 60 EP CP LINDA 1985-08-08 21:00:00 TS 16.3888 -158.426 main 400 400 P_________P___ EP121985 16.4007 -158.398 TD 27 -1 16.4018 -158.414 1 26 15 271
1985211N12237 1985 60 EP CP LINDA 1985-08-09 00:00:00 TS 16.4000 -159.200 25 hurdat_epa main 461 O_________O___ hurdat_epa EP121985 16.4000 -159.200 TD 25 -1 16.4000 -159.200 1 25 15 271

About IBTrACS Database

This database is a web-friendly format of International Best Track Archive for Climate Stewardship (IBTrACS), a global best track data archive curated by NOAA dating back to 1842.

Updated: 2021-11-26